DLH92 LGIR-LGSK
Flight info
| Callsign | DLH92 |
|---|---|
| Flight time | 0h 44m |
| Altitude | 30000 |
| Route | EPALO M749 MIL/N0402F240 M749 ATV B1 SIGFO |
| Aircraft | B738/M-SDE2E3FGHIRWXY/LB1 |
Departure
| Time | 2026-04-15 15:58 |
|---|---|
| Airport | Heraklion International Nikos Kazantzakis Airport (LGIR) |
Arrival
| Time | 2026-04-15 16:43 |
|---|---|
| Airport | Skiathos Island National Airport (LGSK) |
| Time | Latitude | Longitude | Altitude | Speed | Heading |
|---|---|---|---|---|---|
| 2026-04-15 14:52 | 35.33799 | 25.17549 | 86 ft | 0 kts | 278° |
| 2026-04-15 15:38 | 35.33798 | 25.17553 | 86 ft | 3 kts | 277° |
| 2026-04-15 15:38 | 35.33798 | 25.17585 | 87 ft | 4 kts | 258° |
| 2026-04-15 15:39 | 35.33808 | 25.17612 | 89 ft | 4 kts | 218° |
| 2026-04-15 15:39 | 35.33821 | 25.17620 | 90 ft | 0 kts | 185° |
| 2026-04-15 15:45 | 35.33820 | 25.17620 | 90 ft | 1 kts | 191° |
| 2026-04-15 15:45 | 35.33815 | 25.17614 | 90 ft | 1 kts | 223° |
| 2026-04-15 15:46 | 35.33818 | 25.17606 | 90 ft | 1 kts | 307° |
| 2026-04-15 15:46 | 35.33826 | 25.17609 | 86 ft | 1 kts | 15° |
| 2026-04-15 15:46 | 35.33834 | 25.17612 | 87 ft | 1 kts | 18° |
| 2026-04-15 15:46 | 35.33841 | 25.17618 | 87 ft | 1 kts | 32° |
| 2026-04-15 15:47 | 35.33854 | 25.17624 | 87 ft | 3 kts | 20° |
| 2026-04-15 15:47 | 35.33878 | 25.17625 | 89 ft | 4 kts | 354° |
| 2026-04-15 15:47 | 35.33903 | 25.17602 | 89 ft | 5 kts | 296° |
| 2026-04-15 15:47 | 35.33909 | 25.17547 | 87 ft | 8 kts | 275° |
| 2026-04-15 15:48 | 35.33915 | 25.17469 | 88 ft | 10 kts | 275° |
| 2026-04-15 15:48 | 35.33922 | 25.17373 | 86 ft | 12 kts | 273° |
| 2026-04-15 15:48 | 35.33927 | 25.17272 | 87 ft | 12 kts | 273° |
| 2026-04-15 15:48 | 35.33935 | 25.17175 | 86 ft | 11 kts | 274° |
| 2026-04-15 15:49 | 35.33940 | 25.17079 | 85 ft | 11 kts | 273° |
| 2026-04-15 15:49 | 35.33947 | 25.16987 | 85 ft | 11 kts | 277° |
| 2026-04-15 15:49 | 35.33953 | 25.16897 | 85 ft | 10 kts | 273° |
| 2026-04-15 15:49 | 35.33958 | 25.16810 | 88 ft | 10 kts | 277° |
| 2026-04-15 15:50 | 35.33963 | 25.16771 | 88 ft | 0 kts | 287° |
| 2026-04-15 15:55 | 35.33971 | 25.16752 | 88 ft | 7 kts | 299° |
| 2026-04-15 15:56 | 35.34012 | 25.16671 | 86 ft | 16 kts | 303° |
| 2026-04-15 15:56 | 35.34076 | 25.16524 | 89 ft | 23 kts | 286° |
| 2026-04-15 15:56 | 35.34092 | 25.16331 | 85 ft | 17 kts | 279° |
| 2026-04-15 15:56 | 35.34111 | 25.16230 | 87 ft | 6 kts | 281° |
| 2026-04-15 15:57 | 35.34126 | 25.16182 | 87 ft | 6 kts | 295° |
| 2026-04-15 15:57 | 35.34118 | 25.16146 | 87 ft | 4 kts | 213° |
| 2026-04-15 15:57 | 35.34104 | 25.16153 | 88 ft | 2 kts | 117° |
| 2026-04-15 15:57 | 35.34103 | 25.16169 | 88 ft | 2 kts | 95° |
| 2026-04-15 15:58 | 35.34101 | 25.16199 | 87 ft | 9 kts | 92° |
| 2026-04-15 15:58 | 35.34080 | 25.16510 | 87 ft | 74 kts | 95° |
| 2026-04-15 15:58 | 35.34015 | 25.17472 | 87 ft | 149 kts | 95° |
| 2026-04-15 15:58 | 35.33923 | 25.18848 | 803 ft | 152 kts | 94° |
| 2026-04-15 15:59 | 35.33859 | 25.20011 | 2101 ft | 134 kts | 74° |
| 2026-04-15 15:59 | 35.34296 | 25.21049 | 2617 ft | 143 kts | 51° |
| 2026-04-15 15:59 | 35.35224 | 25.21766 | 2704 ft | 183 kts | 10° |
| 2026-04-15 15:59 | 35.36599 | 25.21498 | 2836 ft | 217 kts | 338° |
| 2026-04-15 16:00 | 35.38047 | 25.20678 | 3059 ft | 243 kts | 335° |
| 2026-04-15 16:00 | 35.39650 | 25.19778 | 3314 ft | 269 kts | 336° |
| 2026-04-15 16:00 | 35.41447 | 25.18799 | 3576 ft | 296 kts | 337° |
| 2026-04-15 16:00 | 35.43418 | 25.17734 | 3776 ft | 323 kts | 337° |
| 2026-04-15 16:01 | 35.45510 | 25.16607 | 4269 ft | 330 kts | 337° |
| 2026-04-15 16:01 | 35.47639 | 25.15460 | 4958 ft | 338 kts | 337° |
| 2026-04-15 16:01 | 35.49813 | 25.14288 | 5619 ft | 344 kts | 337° |
| 2026-04-15 16:01 | 35.52027 | 25.13094 | 6296 ft | 350 kts | 337° |
| 2026-04-15 16:02 | 35.54277 | 25.11878 | 6939 ft | 355 kts | 336° |
| 2026-04-15 16:02 | 35.56555 | 25.10645 | 7587 ft | 360 kts | 336° |
| 2026-04-15 16:02 | 35.58858 | 25.09398 | 8247 ft | 363 kts | 336° |
| 2026-04-15 16:02 | 35.61179 | 25.08139 | 8915 ft | 366 kts | 336° |
| 2026-04-15 16:03 | 35.63519 | 25.06869 | 9600 ft | 369 kts | 335° |
| 2026-04-15 16:03 | 35.65875 | 25.05589 | 10264 ft | 371 kts | 335° |
| 2026-04-15 16:03 | 35.68210 | 25.04320 | 10899 ft | 372 kts | 335° |
| 2026-04-15 16:03 | 35.70585 | 25.03027 | 11552 ft | 373 kts | 335° |
| 2026-04-15 16:04 | 35.72960 | 25.01734 | 12217 ft | 374 kts | 334° |
| 2026-04-15 16:04 | 35.75347 | 25.00434 | 12896 ft | 375 kts | 334° |
| 2026-04-15 16:04 | 35.77729 | 24.99135 | 13599 ft | 375 kts | 334° |
| 2026-04-15 16:04 | 35.80119 | 24.97831 | 14255 ft | 376 kts | 334° |
| 2026-04-15 16:05 | 35.82511 | 24.96525 | 14899 ft | 376 kts | 334° |
| 2026-04-15 16:05 | 35.84901 | 24.95219 | 15552 ft | 375 kts | 334° |
| 2026-04-15 16:05 | 35.87286 | 24.93916 | 16222 ft | 375 kts | 334° |
| 2026-04-15 16:05 | 35.89674 | 24.92609 | 16902 ft | 374 kts | 334° |
| 2026-04-15 16:06 | 35.92048 | 24.91310 | 17601 ft | 373 kts | 334° |
| 2026-04-15 16:06 | 35.94410 | 24.90016 | 18306 ft | 371 kts | 334° |
| 2026-04-15 16:06 | 35.96764 | 24.88726 | 18923 ft | 369 kts | 333° |
| 2026-04-15 16:06 | 35.99103 | 24.87444 | 19555 ft | 366 kts | 333° |
| 2026-04-15 16:07 | 36.01422 | 24.86171 | 20201 ft | 364 kts | 333° |
| 2026-04-15 16:07 | 36.03700 | 24.84921 | 20842 ft | 361 kts | 333° |
| 2026-04-15 16:07 | 36.08236 | 24.82428 | 22200 ft | 353 kts | 333° |
| 2026-04-15 16:08 | 36.10465 | 24.81203 | 22900 ft | 348 kts | 333° |
| 2026-04-15 16:08 | 36.12659 | 24.79995 | 23615 ft | 342 kts | 333° |
| 2026-04-15 16:08 | 36.14815 | 24.78808 | 24204 ft | 336 kts | 333° |
| 2026-04-15 16:08 | 36.16929 | 24.77644 | 24812 ft | 329 kts | 333° |
| 2026-04-15 16:09 | 36.18991 | 24.76507 | 25427 ft | 320 kts | 333° |
| 2026-04-15 16:09 | 36.21003 | 24.75398 | 26049 ft | 311 kts | 333° |
| 2026-04-15 16:09 | 36.22951 | 24.74323 | 26612 ft | 305 kts | 333° |
| 2026-04-15 16:09 | 36.24930 | 24.73226 | 26545 ft | 321 kts | 333° |
| 2026-04-15 16:10 | 36.27037 | 24.72053 | 26363 ft | 340 kts | 333° |
| 2026-04-15 16:10 | 36.29228 | 24.70835 | 26467 ft | 350 kts | 333° |
| 2026-04-15 16:10 | 36.31486 | 24.69582 | 26611 ft | 358 kts | 333° |
| 2026-04-15 16:10 | 36.33792 | 24.68304 | 26698 ft | 369 kts | 333° |
| 2026-04-15 16:11 | 36.36144 | 24.67000 | 26787 ft | 379 kts | 333° |
| 2026-04-15 16:11 | 36.38603 | 24.65635 | 26651 ft | 395 kts | 333° |
| 2026-04-15 16:11 | 36.41143 | 24.64224 | 26567 ft | 406 kts | 333° |
| 2026-04-15 16:11 | 36.43735 | 24.62786 | 26452 ft | 407 kts | 333° |
| 2026-04-15 16:12 | 36.46311 | 24.61358 | 26325 ft | 403 kts | 333° |
| 2026-04-15 16:12 | 36.48860 | 24.59946 | 26200 ft | 401 kts | 333° |
| 2026-04-15 16:12 | 36.51400 | 24.58535 | 26144 ft | 399 kts | 333° |
| 2026-04-15 16:12 | 36.53936 | 24.57125 | 26141 ft | 399 kts | 333° |
| 2026-04-15 16:13 | 36.56470 | 24.55713 | 26140 ft | 400 kts | 333° |
| 2026-04-15 16:13 | 36.59010 | 24.54296 | 26136 ft | 400 kts | 333° |
| 2026-04-15 16:13 | 36.61552 | 24.52877 | 26130 ft | 400 kts | 333° |
| 2026-04-15 16:13 | 36.64089 | 24.51459 | 26134 ft | 400 kts | 333° |
| 2026-04-15 16:14 | 36.66626 | 24.50041 | 26134 ft | 400 kts | 333° |
| 2026-04-15 16:14 | 36.69164 | 24.48621 | 26132 ft | 400 kts | 333° |
| 2026-04-15 16:14 | 36.71702 | 24.47200 | 26145 ft | 400 kts | 333° |
| 2026-04-15 16:14 | 36.74240 | 24.45778 | 26142 ft | 400 kts | 333° |
| 2026-04-15 16:15 | 36.76783 | 24.44353 | 26133 ft | 401 kts | 333° |
| 2026-04-15 16:15 | 36.79333 | 24.42922 | 26134 ft | 401 kts | 333° |
| 2026-04-15 16:15 | 36.81873 | 24.41496 | 26142 ft | 401 kts | 332° |
| 2026-04-15 16:15 | 36.84421 | 24.40064 | 26139 ft | 401 kts | 332° |
| 2026-04-15 16:16 | 36.86964 | 24.38635 | 26143 ft | 401 kts | 332° |
| 2026-04-15 16:16 | 36.89510 | 24.37202 | 26140 ft | 401 kts | 332° |
| 2026-04-15 16:16 | 36.92053 | 24.35770 | 26142 ft | 401 kts | 332° |
| 2026-04-15 16:16 | 36.94563 | 24.34356 | 26143 ft | 401 kts | 332° |
| 2026-04-15 16:17 | 36.97115 | 24.32916 | 26139 ft | 402 kts | 332° |
| 2026-04-15 16:17 | 36.99661 | 24.31479 | 26142 ft | 402 kts | 332° |
| 2026-04-15 16:17 | 37.02211 | 24.30040 | 26144 ft | 402 kts | 332° |
| 2026-04-15 16:17 | 37.04760 | 24.28599 | 26146 ft | 402 kts | 332° |
| 2026-04-15 16:18 | 37.07309 | 24.27157 | 26152 ft | 402 kts | 332° |
| 2026-04-15 16:18 | 37.09858 | 24.25714 | 26149 ft | 402 kts | 332° |
| 2026-04-15 16:18 | 37.12408 | 24.24270 | 26152 ft | 402 kts | 332° |
| 2026-04-15 16:18 | 37.14961 | 24.22822 | 26154 ft | 402 kts | 332° |
| 2026-04-15 16:19 | 37.17510 | 24.21377 | 26151 ft | 402 kts | 332° |
| 2026-04-15 16:19 | 37.20058 | 24.19930 | 26155 ft | 402 kts | 332° |
| 2026-04-15 16:19 | 37.22609 | 24.18481 | 26157 ft | 402 kts | 332° |
| 2026-04-15 16:19 | 37.25154 | 24.17034 | 26161 ft | 402 kts | 332° |
| 2026-04-15 16:20 | 37.27701 | 24.15585 | 26162 ft | 402 kts | 332° |
| 2026-04-15 16:20 | 37.30244 | 24.14137 | 26159 ft | 401 kts | 332° |
| 2026-04-15 16:20 | 37.32755 | 24.12706 | 26164 ft | 401 kts | 332° |
| 2026-04-15 16:20 | 37.35296 | 24.11257 | 26163 ft | 401 kts | 332° |
| 2026-04-15 16:21 | 37.37837 | 24.09807 | 26167 ft | 401 kts | 332° |
| 2026-04-15 16:21 | 37.40379 | 24.08355 | 26166 ft | 401 kts | 332° |
| 2026-04-15 16:21 | 37.42916 | 24.06905 | 26169 ft | 401 kts | 332° |
| 2026-04-15 16:21 | 37.45452 | 24.05455 | 26169 ft | 401 kts | 332° |
| 2026-04-15 16:22 | 37.47993 | 24.04000 | 26173 ft | 401 kts | 332° |
| 2026-04-15 16:22 | 37.50534 | 24.02545 | 26172 ft | 400 kts | 332° |
| 2026-04-15 16:22 | 37.53042 | 24.01110 | 25981 ft | 393 kts | 332° |
| 2026-04-15 16:22 | 37.55522 | 23.99688 | 25582 ft | 391 kts | 332° |
| 2026-04-15 16:23 | 37.58001 | 23.98264 | 25093 ft | 392 kts | 332° |
| 2026-04-15 16:23 | 37.60480 | 23.96838 | 24663 ft | 391 kts | 332° |
| 2026-04-15 16:23 | 37.62950 | 23.95418 | 24303 ft | 389 kts | 332° |
| 2026-04-15 16:23 | 37.65411 | 23.94002 | 23864 ft | 389 kts | 332° |
| 2026-04-15 16:24 | 37.67890 | 23.92572 | 23213 ft | 393 kts | 332° |
| 2026-04-15 16:24 | 37.70392 | 23.91129 | 22563 ft | 396 kts | 332° |
| 2026-04-15 16:24 | 37.72900 | 23.89681 | 21919 ft | 398 kts | 333° |
| 2026-04-15 16:24 | 37.75396 | 23.88241 | 21295 ft | 401 kts | 333° |
| 2026-04-15 16:25 | 37.77936 | 23.86774 | 20674 ft | 402 kts | 333° |
| 2026-04-15 16:25 | 37.80489 | 23.85300 | 20080 ft | 404 kts | 333° |
| 2026-04-15 16:25 | 37.83054 | 23.83816 | 19510 ft | 405 kts | 333° |
| 2026-04-15 16:25 | 37.85591 | 23.82350 | 19320 ft | 395 kts | 333° |
| 2026-04-15 16:26 | 37.88074 | 23.80982 | 19217 ft | 384 kts | 338° |
| 2026-04-15 16:26 | 37.90624 | 23.80162 | 19202 ft | 373 kts | 351° |
| 2026-04-15 16:26 | 37.93184 | 23.79863 | 19207 ft | 368 kts | 355° |
| 2026-04-15 16:26 | 37.95741 | 23.79652 | 19208 ft | 368 kts | 354° |
| 2026-04-15 16:27 | 37.98292 | 23.79325 | 19210 ft | 368 kts | 351° |
| 2026-04-15 16:27 | 38.00825 | 23.78886 | 19208 ft | 368 kts | 351° |
| 2026-04-15 16:27 | 38.03370 | 23.78438 | 19204 ft | 368 kts | 351° |
| 2026-04-15 16:27 | 38.05910 | 23.78019 | 19206 ft | 368 kts | 351° |
| 2026-04-15 16:28 | 38.08428 | 23.77631 | 19183 ft | 369 kts | 352° |
| 2026-04-15 16:28 | 38.10981 | 23.77256 | 19188 ft | 369 kts | 352° |
| 2026-04-15 16:28 | 38.13530 | 23.76889 | 19190 ft | 369 kts | 352° |
| 2026-04-15 16:28 | 38.16084 | 23.76521 | 19189 ft | 369 kts | 352° |
| 2026-04-15 16:29 | 38.18634 | 23.76153 | 19188 ft | 370 kts | 352° |
| 2026-04-15 16:29 | 38.21187 | 23.75784 | 19195 ft | 370 kts | 352° |
| 2026-04-15 16:29 | 38.23727 | 23.75418 | 19077 ft | 364 kts | 352° |
| 2026-04-15 16:29 | 38.26241 | 23.75054 | 18742 ft | 363 kts | 352° |
| 2026-04-15 16:30 | 38.28753 | 23.74691 | 18326 ft | 364 kts | 352° |
| 2026-04-15 16:30 | 38.31275 | 23.74325 | 17838 ft | 365 kts | 352° |
| 2026-04-15 16:30 | 38.33828 | 23.73955 | 17143 ft | 372 kts | 352° |
| 2026-04-15 16:30 | 38.36418 | 23.73580 | 16500 ft | 377 kts | 352° |
| 2026-04-15 16:31 | 38.39046 | 23.73199 | 15829 ft | 383 kts | 352° |
| 2026-04-15 16:31 | 38.41682 | 23.72816 | 15191 ft | 387 kts | 352° |
| 2026-04-15 16:31 | 38.44374 | 23.72424 | 14549 ft | 391 kts | 353° |
| 2026-04-15 16:31 | 38.47088 | 23.72029 | 13912 ft | 394 kts | 353° |
| 2026-04-15 16:32 | 38.49828 | 23.71630 | 13205 ft | 397 kts | 352° |
| 2026-04-15 16:32 | 38.52582 | 23.71230 | 12522 ft | 398 kts | 353° |
| 2026-04-15 16:32 | 38.55340 | 23.70828 | 11834 ft | 399 kts | 352° |
| 2026-04-15 16:32 | 38.58100 | 23.70426 | 11171 ft | 400 kts | 352° |
| 2026-04-15 16:33 | 38.60862 | 23.70023 | 10524 ft | 400 kts | 352° |
| 2026-04-15 16:33 | 38.63626 | 23.69620 | 9874 ft | 399 kts | 352° |
| 2026-04-15 16:33 | 38.66381 | 23.69217 | 9201 ft | 399 kts | 352° |
| 2026-04-15 16:33 | 38.69094 | 23.68821 | 9035 ft | 384 kts | 352° |
| 2026-04-15 16:34 | 38.71695 | 23.68439 | 8926 ft | 370 kts | 352° |
| 2026-04-15 16:34 | 38.74213 | 23.68069 | 8820 ft | 357 kts | 352° |
| 2026-04-15 16:34 | 38.76630 | 23.67714 | 8749 ft | 344 kts | 352° |
| 2026-04-15 16:34 | 38.78960 | 23.67371 | 8648 ft | 331 kts | 352° |
| 2026-04-15 16:35 | 38.81185 | 23.67044 | 8571 ft | 318 kts | 352° |
| 2026-04-15 16:35 | 38.83337 | 23.66729 | 8454 ft | 304 kts | 352° |
| 2026-04-15 16:35 | 38.85393 | 23.66426 | 8360 ft | 290 kts | 352° |
| 2026-04-15 16:35 | 38.87357 | 23.66137 | 8264 ft | 277 kts | 352° |
| 2026-04-15 16:36 | 38.89234 | 23.65861 | 8169 ft | 265 kts | 352° |
| 2026-04-15 16:36 | 38.91031 | 23.65596 | 8040 ft | 255 kts | 352° |
| 2026-04-15 16:36 | 38.92786 | 23.65337 | 7751 ft | 253 kts | 352° |
| 2026-04-15 16:36 | 38.94527 | 23.65080 | 7448 ft | 252 kts | 352° |
| 2026-04-15 16:37 | 38.96266 | 23.64822 | 7137 ft | 250 kts | 352° |
| 2026-04-15 16:37 | 38.97971 | 23.64571 | 6838 ft | 249 kts | 351° |
| 2026-04-15 16:37 | 38.99652 | 23.64127 | 6591 ft | 243 kts | 339° |
| 2026-04-15 16:37 | 39.01153 | 23.63296 | 6523 ft | 227 kts | 327° |
| 2026-04-15 16:38 | 39.02414 | 23.62148 | 6238 ft | 219 kts | 315° |
| 2026-04-15 16:38 | 39.03403 | 23.60729 | 5940 ft | 207 kts | 302° |
| 2026-04-15 16:38 | 39.04183 | 23.59193 | 5471 ft | 205 kts | 299° |
| 2026-04-15 16:38 | 39.04937 | 23.57629 | 4950 ft | 207 kts | 299° |
| 2026-04-15 16:39 | 39.05436 | 23.56584 | 4585 ft | 207 kts | 299° |
| 2026-04-15 16:39 | 39.06183 | 23.55000 | 4011 ft | 205 kts | 299° |
| 2026-04-15 16:39 | 39.06913 | 23.53423 | 3469 ft | 205 kts | 299° |
| 2026-04-15 16:39 | 39.07630 | 23.51842 | 2910 ft | 204 kts | 300° |
| 2026-04-15 16:40 | 39.08548 | 23.49733 | 2166 ft | 204 kts | 300° |
| 2026-04-15 16:40 | 39.09249 | 23.48137 | 1688 ft | 200 kts | 304° |
| 2026-04-15 16:40 | 39.09788 | 23.47139 | 1603 ft | 200 kts | 309° |
| 2026-04-15 16:40 | 39.10725 | 23.45855 | 1476 ft | 201 kts | 319° |
| 2026-04-15 16:41 | 39.11849 | 23.44689 | 901 ft | 208 kts | 333° |
| 2026-04-15 16:41 | 39.13145 | 23.44286 | 638 ft | 185 kts | 14° |
| 2026-04-15 16:41 | 39.14004 | 23.45291 | 640 ft | 174 kts | 70° |
| 2026-04-15 16:41 | 39.14625 | 23.46741 | 684 ft | 192 kts | 59° |
| 2026-04-15 16:42 | 39.15180 | 23.48173 | 773 ft | 172 kts | 55° |
| 2026-04-15 16:42 | 39.15986 | 23.49319 | 410 ft | 170 kts | 43° |
| 2026-04-15 16:42 | 39.16947 | 23.50100 | 91 ft | 153 kts | 9° |
| 2026-04-15 16:42 | 39.17908 | 23.50451 | 43 ft | 126 kts | 19° |
| 2026-04-15 16:43 | 39.18279 | 23.50618 | 56 ft | 12 kts | 21° |
| 2026-04-15 16:43 | 39.18365 | 23.50661 | 56 ft | 14 kts | 28° |
| 2026-04-15 16:43 | 39.18378 | 23.50672 | 60 ft | 1 kts | 37° |
| 2026-04-15 16:43 | 39.18392 | 23.50680 | 57 ft | 1 kts | 352° |
| 2026-04-15 16:44 | 39.18392 | 23.50679 | 57 ft | 0 kts | 342° |
| 2026-04-15 16:44 | 39.18393 | 23.50673 | 57 ft | 1 kts | 285° |
| 2026-04-15 16:44 | 39.18384 | 23.50663 | 59 ft | 4 kts | 221° |
| 2026-04-15 16:44 | 39.18334 | 23.50635 | 56 ft | 11 kts | 198° |
| 2026-04-15 16:45 | 39.18238 | 23.50595 | 53 ft | 18 kts | 198° |
| 2026-04-15 16:45 | 39.18099 | 23.50535 | 48 ft | 23 kts | 198° |
| 2026-04-15 16:45 | 39.17957 | 23.50469 | 44 ft | 17 kts | 198° |
| 2026-04-15 16:45 | 39.17847 | 23.50420 | 41 ft | 16 kts | 200° |
| 2026-04-15 16:46 | 39.17754 | 23.50375 | 39 ft | 10 kts | 201° |
| 2026-04-15 16:46 | 39.17713 | 23.50311 | 38 ft | 10 kts | 246° |
| 2026-04-15 16:46 | 39.17703 | 23.50270 | 36 ft | 0 kts | 268° |
| 2026-04-15 16:46 | 39.17707 | 23.50267 | 37 ft | 2 kts | 308° |
| 2026-04-15 16:47 | 39.17731 | 23.50241 | 38 ft | 6 kts | 328° |
| 2026-04-15 16:47 | 39.17766 | 23.50217 | 37 ft | 6 kts | 328° |
| 2026-04-15 16:47 | 39.17801 | 23.50178 | 40 ft | 7 kts | 321° |
| 2026-04-15 16:47 | 39.17804 | 23.50176 | 40 ft | 0 kts | 321° |